TimePDT,TemperatureF,Dew PointF,Humidity,Sea Level PressureIn,VisibilityMPH,Wind Direction,Wind SpeedMPH,Gust SpeedMPH,PrecipitationIn,Events,Conditions,WindDirDegrees,DateUTC
12:58 AM,69.3,47.5,46,29.81,10.0,SSW,2.3,-,N/A,,Partly Cloudy,200,2013-08-23 07:58:00
1:58 AM,66.6,48.7,53,29.83,10.0,SE,5.8,-,N/A,,Mostly Cloudy,140,2013-08-23 08:58:00
2:58 AM,67.8,52.2,57,29.81,10.0,SE,6.9,-,N/A,,Overcast,130,2013-08-23 09:58:00
3:58 AM,65.7,53.1,64,29.81,10.0,SE,8.1,-,N/A,,Scattered Clouds,130,2013-08-23 10:58:00
4:58 AM,65.3,53.4,65,29.81,10.0,ESE,5.8,-,N/A,,Overcast,120,2013-08-23 11:58:00
5:58 AM,61.3,52.7,73,29.81,10.0,South,5.8,-,N/A,,Overcast,170,2013-08-23 12:58:00
6:58 AM,64.8,53.2,66,29.82,10.0,SE,8.1,-,N/A,,Overcast,130,2013-08-23 13:58:00
7:51 AM,66.2,53.6,64,29.87,10.0,SSE,4.6,-,N/A,Thunderstorm,Overcast,150,2013-08-23 14:51:00
7:58 AM,66.4,53.6,63,29.84,10.0,South,6.9,-,N/A,Thunderstorm,Overcast,180,2013-08-23 14:58:00
8:58 AM,67.6,52.9,59,29.85,10.0,South,4.6,-,N/A,,Overcast,170,2013-08-23 15:58:00
9:58 AM,69.4,53.4,57,29.84,10.0,SSW,6.9,-,N/A,,Overcast,200,2013-08-23 16:58:00
10:58 AM,71.2,53.2,53,29.84,10.0,South,8.1,-,N/A,,Overcast,170,2013-08-23 17:58:00
11:58 AM,75.0,53.4,47,29.83,10.0,ESE,4.6,-,N/A,,Mostly Cloudy,120,2013-08-23 18:58:00
12:55 PM,75.4,51.4,43,29.82,7.0,South,9.2,-,N/A,,Mostly Cloudy,190,2013-08-23 19:55:00
1:55 PM,77.4,52.0,41,29.82,10.0,SSW,17.3,-,N/A,,Mostly Cloudy,210,2013-08-23 20:55:00
2:55 PM,79.3,51.8,38,29.80,10.0,SSW,6.9,16.1,N/A,,Mostly Cloudy,200,2013-08-23 21:55:00
3:55 PM,79.0,50.4,37,29.79,10.0,SW,13.8,-,N/A,,Mostly Cloudy,220,2013-08-23 22:55:00
4:58 PM,80.1,49.8,35,29.78,10.0,SSW,12.7,20.7,N/A,,Scattered Clouds,200,2013-08-23 23:58:00
5:08 PM,78.8,50.0,36,29.82,10.0,SW,17.3,-,N/A,,Partly Cloudy,230,2013-08-24 00:08:00
5:58 PM,77.5,49.6,37,29.79,10.0,SSW,11.5,-,N/A,,Clear,210,2013-08-24 00:58:00
6:58 PM,76.1,50.0,40,29.79,10.0,SW,11.5,-,N/A,,Clear,220,2013-08-24 01:58:00
7:58 PM,70.3,48.9,47,29.80,10.0,SW,6.9,-,N/A,,Clear,220,2013-08-24 02:58:00
8:58 PM,67.8,47.8,49,29.81,10.0,SSW,6.9,-,N/A,,Clear,210,2013-08-24 03:58:00
9:58 PM,67.1,47.8,50,29.81,10.0,SSW,2.3,-,N/A,,Clear,200,2013-08-24 04:58:00
10:58 PM,66.4,48.4,52,29.81,10.0,SE,1.2,-,N/A,,Clear,130,2013-08-24 05:58:00
11:58 PM,62.8,48.7,60,29.81,10.0,SSW,4.6,-,N/A,,Clear,210,2013-08-24 06:58:00